Time;durP1;ratioP1;P1;durP2;ratioP2;P2;SDS_P1;SDS_P2;PMS_P1;PMS_P2;Temp;Humidity;BMP_temperature;BMP_pressure;BME280_temperature;BME280_humidity;BME280_pressure;Samples;Min_cycle;Max_cycle;Signal;HPM_P1;HPM_P2
2024/02/17 00:01:15;;;;;;;17.48;10.82;;;;;;;4.35;57.23;95687.06;5088318;28;20123;-74
2024/02/17 00:03:41;;;;;;;20.02;10.98;;;;;;;4.35;57.24;95697.19;5088101;28;20020;-74
2024/02/17 00:06:06;;;;;;;20.35;10.55;;;;;;;4.28;57.54;95700.66;5088329;28;20505;-75
2024/02/17 00:08:32;;;;;;;23.20;11.05;;;;;;;4.24;57.53;95686.22;5088132;28;20038;-73
2024/02/17 00:10:57;;;;;;;19.92;11.05;;;;;;;4.21;57.58;95693.22;5087754;28;20585;-73
2024/02/17 00:13:22;;;;;;;18.98;11.18;;;;;;;4.26;57.48;95690.16;5088047;28;20100;-73
2024/02/17 00:15:48;;;;;;;19.65;11.23;;;;;;;4.24;57.27;95687.03;5069114;28;20035;-74
2024/02/17 00:18:13;;;;;;;18.35;11.05;;;;;;;4.16;57.25;95685.41;5088321;28;20103;-74
2024/02/17 00:20:39;;;;;;;21.63;11.98;;;;;;;4.12;57.28;95687.28;5052673;28;20035;-73
2024/02/17 00:23:05;;;;;;;17.60;10.95;;;;;;;4.08;57.34;95681.06;5088221;28;20183;-74
2024/02/17 00:25:31;;;;;;;17.30;11.07;;;;;;;4.04;57.46;95677.53;5087944;28;20115;-74
2024/02/17 00:27:56;;;;;;;22.13;11.85;;;;;;;4.04;57.25;95693.84;5087671;28;20564;-73
2024/02/17 00:30:21;;;;;;;20.17;11.90;;;;;;;4.00;57.42;95695.75;5087870;28;20051;-74
2024/02/17 00:32:47;;;;;;;21.10;11.32;;;;;;;3.99;57.51;95692.25;5087952;28;20028;-75
2024/02/17 00:35:12;;;;;;;20.17;10.52;;;;;;;3.98;57.57;95695.34;5088036;28;20072;-73
2024/02/17 00:37:38;;;;;;;16.77;11.10;;;;;;;3.98;57.28;95692.63;5087081;28;20096;-73
2024/02/17 00:40:06;;;;;;;18.15;11.05;;;;;;;3.92;57.42;95686.75;5087941;28;20028;-73
2024/02/17 00:42:32;;;;;;;21.17;11.02;;;;;;;3.87;57.51;95673.50;5087036;28;20517;-74
2024/02/17 00:44:57;;;;;;;16.52;10.85;;;;;;;3.99;57.18;95692.25;5087618;28;20020;-74
2024/02/17 00:47:22;;;;;;;16.98;11.00;;;;;;;3.80;57.43;95681.59;5087309;28;20445;-74
2024/02/17 00:49:48;;;;;;;16.17;10.75;;;;;;;3.88;57.67;95691.38;5087347;28;20048;-74
2024/02/17 00:52:14;;;;;;;17.17;10.02;;;;;;;3.91;57.79;95696.06;5087693;28;20031;-74
2024/02/17 00:54:39;;;;;;;17.50;11.15;;;;;;;3.92;57.75;95692.19;5086380;28;20568;-74
2024/02/17 00:57:04;;;;;;;17.48;10.65;;;;;;;3.90;57.72;95696.44;5087522;28;20039;-73
2024/02/17 00:59:30;;;;;;;17.98;10.00;;;;;;;3.84;57.61;95689.78;5086915;28;20028;-74
2024/02/17 01:01:56;;;;;;;17.92;11.13;;;;;;;3.79;57.65;95688.19;5068584;28;20047;-75
2024/02/17 01:04:22;;;;;;;16.75;10.65;;;;;;;3.69;58.03;95669.84;5086918;28;20479;-74
2024/02/17 01:06:47;;;;;;;21.40;11.90;;;;;;;3.75;57.87;95692.81;5087312;28;20032;-74
2024/02/17 01:09:13;;;;;;;17.73;11.23;;;;;;;3.71;57.72;95690.06;5087201;28;20028;-74
2024/02/17 01:11:39;;;;;;;18.80;10.30;;;;;;;3.69;57.78;95688.88;5086903;28;20482;-74
2024/02/17 01:14:04;;;;;;;17.98;10.15;;;;;;;3.67;57.72;95689.25;5087854;28;20038;-74
2024/02/17 01:16:30;;;;;;;16.35;10.57;;;;;;;3.62;57.72;95691.53;5086760;28;20024;-75
2024/02/17 01:18:56;;;;;;;19.50;11.05;;;;;;;3.60;57.81;95697.31;5087946;28;20032;-74
2024/02/17 01:21:21;;;;;;;18.25;11.20;;;;;;;3.56;57.59;95693.81;5068319;28;20081;-74
2024/02/17 01:23:47;;;;;;;17.27;10.85;;;;;;;3.56;57.54;95687.59;5086917;28;20441;-74
2024/02/17 01:26:13;;;;;;;17.30;10.27;;;;;;;3.55;57.75;95691.44;5085223;28;20032;-74
2024/02/17 01:28:38;;;;;;;17.52;11.23;;;;;;;3.52;57.72;95686.75;5086296;28;20052;-73
2024/02/17 01:31:04;;;;;;;20.38;10.38;;;;;;;3.47;57.84;95688.66;5086704;28;20449;-74
2024/02/17 01:33:29;;;;;;;18.90;11.05;;;;;;;3.41;58.20;95687.44;5085955;28;20035;-75
2024/02/17 01:35:55;;;;;;;15.73;10.73;;;;;;;3.42;58.23;95696.34;5068730;28;20077;-74
2024/02/17 01:38:20;;;;;;;17.80;11.30;;;;;;;3.44;58.01;95691.31;5085747;28;20086;-74
2024/02/17 01:40:46;;;;;;;19.08;10.43;;;;;;;3.36;57.87;95693.19;5086939;28;20092;-74
2024/02/17 01:43:13;;;;;;;18.08;10.98;;;;;;;3.35;58.20;95690.84;5086097;28;20161;-74
2024/02/17 01:45:39;;;;;;;17.52;10.48;;;;;;;3.36;58.33;95684.25;5086356;28;20029;-74
2024/02/17 01:48:05;;;;;;;19.58;10.30;;;;;;;3.31;58.37;95693.53;5068107;28;20490;-74
2024/02/17 01:50:30;;;;;;;15.88;10.40;;;;;;;3.26;58.55;95688.41;5067810;28;20028;-73
2024/02/17 01:52:57;;;;;;;20.60;11.00;;;;;;;3.26;58.46;95688.41;5086610;28;20046;-73
2024/02/17 01:55:23;;;;;;;19.75;10.50;;;;;;;3.28;58.43;95682.63;5085318;28;20497;-74
2024/02/17 01:57:49;;;;;;;18.08;10.38;;;;;;;3.26;58.50;95688.41;5086452;28;20028;-74
2024/02/17 02:00:15;;;;;;;18.52;10.27;;;;;;;3.17;58.37;95688.72;5067010;28;20032;-73
2024/02/17 02:02:41;;;;;;;15.20;10.13;;;;;;;3.14;58.59;95691.38;5067852;28;20535;-74
2024/02/17 02:05:07;;;;;;;16.45;10.15;;;;;;;3.15;58.60;95695.66;5050839;28;20035;-74
2024/02/17 02:07:32;;;;;;;21.13;9.60;;;;;;;3.15;58.39;95690.22;5085671;28;20032;-74
2024/02/17 02:09:57;;;;;;;15.90;9.88;;;;;;;3.12;58.50;95693.69;5086451;28;20356;-74
2024/02/17 02:12:23;;;;;;;19.10;10.68;;;;;;;3.08;58.49;95690.94;5085128;28;20028;-74
2024/02/17 02:15:05;;;;;;;18.65;10.95;;;;;;;3.03;59.20;95693.19;5086386;28;20142;-73
2024/02/17 02:17:31;;;;;;;16.75;10.40;;;;;;;3.02;59.62;95700.56;5085823;28;20028;-73
2024/02/17 02:19:56;;;;;;;18.63;11.07;;;;;;;3.03;59.03;95699.41;5086054;28;20457;-74
2024/02/17 02:22:21;;;;;;;19.52;10.70;;;;;;;3.05;59.19;95696.34;5085467;28;20059;-73
2024/02/17 02:24:48;;;;;;;21.38;11.05;;;;;;;3.01;59.42;95700.94;5085713;28;20042;-73
2024/02/17 02:27:14;;;;;;;19.00;11.10;;;;;;;2.97;59.33;95697.38;5067922;28;20039;-74
2024/02/17 02:29:46;;;;;;;17.98;10.50;;;;;;;2.99;59.07;95695.09;5085018;28;20028;-74
2024/02/17 02:32:12;;;;;;;17.15;11.20;;;;;;;2.93;59.49;95695.41;5085885;28;20078;-73
2024/02/17 02:34:37;;;;;;;20.65;10.88;;;;;;;2.95;58.84;95703.19;5085145;28;20173;-73
2024/02/17 02:37:03;;;;;;;15.05;10.38;;;;;;;2.88;59.04;95694.97;5085087;28;20028;-74
2024/02/17 02:39:28;;;;;;;18.80;10.02;;;;;;;2.82;59.08;95697.22;5085595;28;20118;-73
2024/02/17 02:41:53;;;;;;;19.90;11.00;;;;;;;2.82;59.19;95702.66;5067050;28;20031;-75
2024/02/17 02:44:19;;;;;;;19.15;11.10;;;;;;;2.84;59.73;95699.56;5067294;28;20086;-73
2024/02/17 02:46:44;;;;;;;17.50;11.55;;;;;;;2.78;59.57;95701.03;5084649;28;20038;-73
2024/02/17 02:49:10;;;;;;;20.85;11.98;;;;;;;2.86;59.10;95702.66;5085666;28;20032;-73
2024/02/17 02:51:35;;;;;;;16.88;10.60;;;;;;;2.83;59.16;95700.72;5085348;28;20455;-73
2024/02/17 02:54:00;;;;;;;17.02;10.57;;;;;;;2.84;59.10;95704.97;5084849;28;20094;-73
2024/02/17 02:56:26;;;;;;;19.10;12.10;;;;;;;2.84;59.16;95705.75;5066506;28;20035;-74
2024/02/17 02:58:51;;;;;;;19.30;10.18;;;;;;;2.81;59.20;95706.50;5085422;28;20177;-74
2024/02/17 03:01:17;;;;;;;17.83;9.40;;;;;;;2.74;59.45;95705.63;5050032;28;20060;-74
2024/02/17 03:03:42;;;;;;;14.65;9.98;;;;;;;2.73;59.70;95710.28;5084914;28;20020;-74
2024/02/17 03:06:07;;;;;;;14.70;9.32;;;;;;;2.66;59.95;95697.38;5085697;28;20036;-74
2024/02/17 03:08:33;;;;;;;15.05;9.45;;;;;;;2.69;60.47;95704.00;5085100;28;20456;-74
2024/02/17 03:10:58;;;;;;;17.77;9.65;;;;;;;2.69;60.57;95703.22;5067545;28;20120;-74
2024/02/17 03:13:24;;;;;;;18.63;10.60;;;;;;;2.73;60.21;95706.78;5084345;28;20028;-74
2024/02/17 03:15:49;;;;;;;16.25;9.52;;;;;;;2.67;60.94;95709.03;5085241;28;20016;-74
2024/02/17 03:18:15;;;;;;;15.43;9.57;;;;;;;2.76;60.97;95714.97;5084509;28;20024;-74
2024/02/17 03:20:40;;;;;;;12.75;9.18;;;;;;;2.75;60.78;95712.59;5084990;28;20404;-74
2024/02/17 03:23:06;;;;;;;14.98;9.15;;;;;;;2.75;61.26;95712.59;5085213;28;20028;-74
2024/02/17 03:25:31;;;;;;;16.17;9.25;;;;;;;2.79;61.50;95718.88;5084463;28;20039;-74
2024/02/17 03:27:56;;;;;;;15.43;9.52;;;;;;;2.79;61.65;95713.44;5085510;28;20429;-73
2024/02/17 03:30:22;;;;;;;15.40;8.77;;;;;;;2.78;62.26;95717.31;5084342;28;20032;-74
2024/02/17 03:32:47;;;;;;;17.40;10.02;;;;;;;2.65;62.68;95714.03;5085446;28;20115;-73
2024/02/17 03:35:13;;;;;;;16.50;9.02;;;;;;;2.67;62.28;95706.31;5084328;28;20502;-74
2024/02/17 03:37:38;;;;;;;12.32;8.73;;;;;;;2.69;62.32;95708.66;5085107;28;20023;-74
2024/02/17 03:40:06;;;;;;;13.68;9.13;;;;;;;2.69;62.23;95711.38;5084710;28;20108;-74
2024/02/17 03:42:33;;;;;;;13.68;9.45;;;;;;;2.70;61.80;95712.94;5084601;28;20031;-74
2024/02/17 03:44:58;;;;;;;14.68;8.38;;;;;;;2.67;61.29;95711.75;5085950;28;20028;-73
2024/02/17 03:47:23;;;;;;;14.38;8.70;;;;;;;2.69;61.63;95717.56;5065992;28;20024;-73
2024/02/17 03:49:49;;;;;;;14.00;8.88;;;;;;;2.47;61.48;95680.44;5087853;28;20021;-73
2024/02/17 03:52:14;;;;;;;14.05;8.95;;;;;;;2.69;60.91;95717.56;5087898;28;20401;-74
2024/02/17 03:54:42;;;;;;;12.23;8.88;;;;;;;2.70;60.23;95704.81;5088390;28;20055;-74
2024/02/17 03:57:08;;;;;;;14.10;9.27;;;;;;;2.67;60.04;95717.94;5088023;28;20024;-73
2024/02/17 03:59:34;;;;;;;14.30;9.00;;;;;;;2.67;60.02;95711.75;5088244;28;20034;-73
2024/02/17 04:01:59;;;;;;;14.88;8.38;;;;;;;2.57;59.94;95702.28;5088639;28;20073;-74
2024/02/17 04:04:25;;;;;;;16.27;10.07;;;;;;;2.53;60.06;95708.84;5069455;28;20028;-73
2024/02/17 04:06:51;;;;;;;11.90;8.27;;;;;;;2.53;59.88;95711.56;5088619;28;20081;-73
2024/02/17 04:09:16;;;;;;;12.85;7.80;;;;;;;2.51;59.75;95711.91;5087603;28;20028;-74
2024/02/17 04:11:42;;;;;;;11.90;9.35;;;;;;;2.49;59.46;95710.72;5088614;28;20024;-75
2024/02/17 04:14:07;;;;;;;14.15;9.73;;;;;;;2.48;59.62;95709.94;5087777;28;20035;-74
2024/02/17 04:16:33;;;;;;;14.50;8.63;;;;;;;2.43;59.63;95707.53;5088132;28;20036;-73
2024/02/17 04:18:58;;;;;;;17.40;9.52;;;;;;;2.43;59.79;95704.03;5088480;28;20035;-73
2024/02/17 04:21:23;;;;;;;14.10;9.63;;;;;;;2.38;59.72;95703.19;5087740;28;20097;-74
2024/02/17 04:23:49;;;;;;;15.05;8.65;;;;;;;2.37;59.81;95709.00;5088549;28;20497;-74
2024/02/17 04:26:14;;;;;;;16.67;9.50;;;;;;;2.37;59.86;95703.56;5086983;28;20070;-74
2024/02/17 04:28:40;;;;;;;11.65;8.43;;;;;;;2.29;59.74;95697.22;5088236;28;20020;-74
2024/02/17 04:31:07;;;;;;;16.15;8.75;;;;;;;2.28;60.02;95698.38;5087441;28;20024;-74
2024/02/17 04:33:39;;;;;;;14.50;8.50;;;;;;;2.29;59.88;95699.16;5088211;28;20039;-73
2024/02/17 04:36:05;;;;;;;14.55;8.68;;;;;;;2.26;59.92;95705.31;5069865;28;20032;-73
2024/02/17 04:38:31;;;;;;;19.38;10.63;;;;;;;2.24;59.77;95707.63;5069608;28;20028;-74
2024/02/17 04:40:56;;;;;;;15.43;9.98;;;;;;;2.19;59.62;95716.06;5088296;28;20031;-75
2024/02/17 04:43:22;;;;;;;14.73;9.38;;;;;;;2.19;59.77;95716.84;5086990;28;20032;-74
2024/02/17 04:45:47;;;;;;;14.57;8.45;;;;;;;2.17;59.84;95721.06;5088017;28;20040;-73
2024/02/17 04:48:12;;;;;;;12.32;8.70;;;;;;;2.11;60.13;95715.16;5087119;28;20020;-73
2024/02/17 04:50:38;;;;;;;14.75;8.98;;;;;;;2.13;60.23;95721.03;5087518;28;20016;-74
2024/02/17 04:53:03;;;;;;;14.10;9.43;;;;;;;2.07;60.39;95722.47;5086961;28;20053;-74
2024/02/17 04:55:30;;;;;;;17.20;9.63;;;;;;;2.11;60.99;95728.72;5086886;28;20111;-74
2024/02/17 04:57:56;;;;;;;17.23;9.82;;;;;;;2.09;60.79;95725.59;5087636;28;20024;-74
2024/02/17 05:00:21;;;;;;;18.85;10.20;;;;;;;2.13;60.90;95727.22;5086216;28;20391;-73
2024/02/17 05:02:47;;;;;;;19.95;11.35;;;;;;;2.11;61.09;95729.50;5087891;28;20103;-74
2024/02/17 05:05:17;;;;;;;19.25;10.90;;;;;;;2.13;60.85;95727.22;5068172;28;20028;-73
2024/02/17 05:07:43;;;;;;;19.25;11.93;;;;;;;2.09;60.63;95729.09;5087470;28;20020;-73
2024/02/17 05:10:09;;;;;;;19.33;11.30;;;;;;;2.01;60.56;95718.50;5086329;28;20367;-74
2024/02/17 05:12:34;;;;;;;21.08;11.77;;;;;;;2.10;60.76;95730.66;5086988;28;20028;-73
2024/02/17 05:15:04;;;;;;;19.20;11.77;;;;;;;2.06;60.62;95729.03;5087021;28;20040;-73
2024/02/17 05:17:30;;;;;;;20.08;11.45;;;;;;;2.04;60.49;95731.31;5086416;28;20020;-74
2024/02/17 05:19:56;;;;;;;19.48;11.38;;;;;;;2.04;60.32;95728.63;5087469;28;20415;-73
2024/02/17 05:22:21;;;;;;;20.02;11.02;;;;;;;1.94;60.50;95726.50;5067922;28;20249;-74
2024/02/17 05:24:47;;;;;;;19.50;10.60;;;;;;;2.00;60.37;95733.97;5087201;28;20601;-73
2024/02/17 05:27:12;;;;;;;17.88;10.68;;;;;;;2.02;60.11;95733.63;5086027;28;20034;-74
2024/02/17 05:29:38;;;;;;;23.30;11.48;;;;;;;1.99;60.08;95737.03;5087016;28;20036;-73
2024/02/17 05:32:05;;;;;;;19.80;11.68;;;;;;;1.97;60.14;95739.34;5068559;28;20032;-74
2024/02/17 05:34:31;;;;;;;19.90;12.27;;;;;;;1.90;60.60;95745.44;5086490;28;20028;-74
2024/02/17 05:36:56;;;;;;;20.80;12.05;;;;;;;1.92;60.59;95750.50;5087035;28;20081;-74
2024/02/17 05:39:23;;;;;;;23.52;11.82;;;;;;;1.94;60.46;95751.69;5085774;28;20032;-74
2024/02/17 05:41:48;;;;;;;27.38;13.88;;;;;;;1.91;60.52;95763.28;5087009;28;20137;-73
2024/02/17 05:44:14;;;;;;;33.00;16.67;;;;;;;1.90;61.14;95755.50;5085910;28;20032;-73
2024/02/17 05:46:39;;;;;;;31.92;16.42;;;;;;;1.94;61.37;95765.25;5086561;28;20032;-74
2024/02/17 05:49:05;;;;;;;33.15;16.85;;;;;;;1.96;61.03;95767.63;5067642;28;20066;-75
2024/02/17 05:51:30;;;;;;;36.80;16.77;;;;;;;1.94;61.15;95764.47;5086434;28;20020;-74
2024/02/17 05:53:56;;;;;;;27.85;15.43;;;;;;;1.93;61.56;95774.53;5086837;28;20122;-74
2024/02/17 05:56:21;;;;;;;29.70;16.52;;;;;;;1.94;61.58;95767.94;5085540;28;20024;-74
2024/02/17 05:58:46;;;;;;;25.73;15.73;;;;;;;1.99;61.44;95781.22;5086885;28;20065;-74
2024/02/17 06:01:12;;;;;;;25.40;15.55;;;;;;;2.04;61.04;95778.22;5085359;28;20056;-74
2024/02/17 06:03:37;;;;;;;27.80;16.63;;;;;;;2.09;60.94;95780.63;5086588;28;20453;-74
2024/02/17 06:06:03;;;;;;;24.98;15.43;;;;;;;2.05;60.95;95782.50;5085494;28;20043;-74
2024/02/17 06:08:30;;;;;;;23.27;13.52;;;;;;;2.09;60.75;95787.97;5067714;28;20454;-75
2024/02/17 06:10:55;;;;;;;28.35;14.80;;;;;;;2.08;60.62;95786.44;5085819;28;20049;-74
2024/02/17 06:13:20;;;;;;;29.33;14.15;;;;;;;2.17;60.22;95794.31;5085103;28;20114;-73
2024/02/17 06:15:46;;;;;;;24.67;13.23;;;;;;;2.20;60.24;95788.16;5086269;28;20133;-73
2024/02/17 06:21:10;;;;;;;;;;;;;;;2.24;60.56;95797.94;5086931;28;20035;-74
2024/02/17 06:23:37;;;;;;;29.58;13.63;;;;;;;2.25;60.36;95799.50;5085494;28;20006;-75
2024/02/17 06:26:03;;;;;;;27.05;14.60;;;;;;;2.24;60.44;95791.75;5067407;28;20076;-75
2024/02/17 06:28:28;;;;;;;23.25;13.63;;;;;;;2.32;60.37;95799.63;5085797;28;20036;-74
2024/02/17 06:30:53;;;;;;;24.98;13.77;;;;;;;2.34;60.73;95802.75;5085605;28;20028;-74
2024/02/17 06:33:19;;;;;;;23.33;13.55;;;;;;;2.38;60.69;95803.59;5086064;28;20028;-74
2024/02/17 06:35:44;;;;;;;22.67;12.80;;;;;;;2.44;60.80;95806.00;5085083;28;20032;-74
2024/02/17 06:38:10;;;;;;;25.63;13.30;;;;;;;2.51;60.66;95804.19;5086000;28;20034;-74
2024/02/17 06:40:35;;;;;;;20.95;13.65;;;;;;;2.55;60.67;95805.03;5084851;28;20036;-74
2024/02/17 06:43:01;;;;;;;27.42;14.20;;;;;;;2.60;60.73;95814.81;5085673;28;20024;-74
2024/02/17 06:45:26;;;;;;;25.90;14.80;;;;;;;2.66;60.59;95808.69;5085112;28;20111;-74
2024/02/17 06:47:52;;;;;;;28.48;14.77;;;;;;;2.79;60.43;95817.41;5085464;28;20032;-74
2024/02/17 06:50:17;;;;;;;22.17;14.15;;;;;;;2.75;60.50;95804.94;5085804;28;20032;-75
2024/02/17 06:52:43;;;;;;;19.88;12.57;;;;;;;2.91;60.37;95822.63;5084772;28;20031;-74
2024/02/17 06:55:08;;;;;;;27.13;14.55;;;;;;;3.00;60.50;95830.53;5085559;28;20436;-73
2024/02/17 06:57:34;;;;;;;29.65;15.27;;;;;;;3.02;60.49;95816.59;5084892;28;20032;-74
2024/02/17 06:59:59;;;;;;;26.92;15.43;;;;;;;3.15;60.35;95820.63;5067904;28;20407;-75
2024/02/17 07:02:25;;;;;;;27.02;16.08;;;;;;;3.24;60.26;95820.38;5085446;28;20079;-74
2024/02/17 07:04:50;;;;;;;24.45;14.77;;;;;;;3.37;59.95;95819.00;5085455;28;20098;-75
2024/02/17 07:07:16;;;;;;;24.83;14.98;;;;;;;3.46;59.69;95819.50;5066940;28;20028;-74
2024/02/17 07:09:41;;;;;;;25.00;16.13;;;;;;;3.49;59.64;95821.47;5085000;28;20044;-74
2024/02/17 07:12:07;;;;;;;27.13;15.30;;;;;;;3.57;59.49;95823.16;5085861;28;20485;-75
2024/02/17 07:14:32;;;;;;;26.98;15.45;;;;;;;3.68;59.40;95826.78;5085001;28;20105;-73
2024/02/17 07:16:58;;;;;;;25.40;13.90;;;;;;;3.78;59.13;95827.25;5086159;28;20020;-73
2024/02/17 07:19:23;;;;;;;24.73;15.38;;;;;;;3.86;59.10;95827.00;5085396;28;20103;-75
2024/02/17 07:21:49;;;;;;;32.78;19.00;;;;;;;3.97;59.08;95833.31;5068103;28;20031;-76
2024/02/17 07:24:14;;;;;;;34.00;19.52;;;;;;;4.04;59.02;95824.44;5069405;28;20061;-75
2024/02/17 07:26:42;;;;;;;34.75;23.10;;;;;;;4.19;58.54;95828.13;5089072;28;20032;-76
2024/02/17 07:29:07;;;;;;;41.88;26.50;;;;;;;4.30;58.59;95828.19;5089902;28;20020;-75
2024/02/17 07:31:38;;;;;;;46.58;31.00;;;;;;;4.38;58.30;95836.06;5070132;28;20028;-74
2024/02/17 07:34:04;;;;;;;39.50;29.52;;;;;;;4.50;58.08;95827.63;5089899;28;20108;-75
2024/02/17 07:36:29;;;;;;;34.15;25.55;;;;;;;4.51;57.86;95821.00;5088563;28;20104;-75
2024/02/17 07:38:55;;;;;;;37.10;25.52;;;;;;;4.67;57.50;95828.16;5089524;28;20025;-74
2024/02/17 07:41:20;;;;;;;33.15;23.55;;;;;;;4.82;57.41;95826.31;5069339;28;20490;-86
2024/02/17 07:43:45;;;;;;;33.75;21.77;;;;;;;4.94;57.13;95829.53;5053736;28;20028;-75
2024/02/17 07:46:11;;;;;;;31.23;21.27;;;;;;;5.05;57.01;95827.66;5088893;28;20143;-75
2024/02/17 07:48:36;;;;;;;34.60;21.70;;;;;;;5.19;56.82;95837.09;5088172;28;20480;-75
2024/02/17 07:51:01;;;;;;;33.63;22.55;;;;;;;5.29;56.63;95826.25;5089241;28;20032;-76
2024/02/17 07:53:27;;;;;;;34.85;22.20;;;;;;;5.45;56.16;95828.69;5088051;28;20020;-75
2024/02/17 07:55:52;;;;;;;33.00;20.45;;;;;;;5.62;55.93;95827.19;5088785;28;20103;-74
2024/02/17 07:58:18;;;;;;;32.80;21.80;;;;;;;5.82;55.27;95833.91;5087868;28;20059;-74
2024/02/17 08:00:43;;;;;;;44.95;22.13;;;;;;;6.06;54.59;95827.00;5088526;28;20086;-74
2024/02/17 08:03:09;;;;;;;31.02;22.83;;;;;;;6.29;54.01;95821.19;5070168;28;20063;-75
2024/02/17 08:05:35;;;;;;;30.25;21.38;;;;;;;6.55;53.54;95828.25;5087701;28;20139;-75
2024/02/17 08:08:00;;;;;;;31.50;21.70;;;;;;;6.86;52.75;95823.19;5089224;28;20111;-75
2024/02/17 08:10:25;;;;;;;33.20;21.67;;;;;;;7.22;52.05;95825.88;5087524;28;20115;-75
2024/02/17 08:12:51;;;;;;;29.60;21.65;;;;;;;7.56;51.11;95820.72;5088729;28;20398;-76
2024/02/17 08:15:16;;;;;;;31.40;20.95;;;;;;;7.96;50.37;95833.09;5087986;28;20020;-75
2024/02/17 08:17:42;;;;;;;31.20;19.75;;;;;;;8.38;49.19;95823.13;5088319;28;20055;-75
2024/02/17 08:20:08;;;;;;;29.55;19.05;;;;;;;8.83;48.30;95828.66;5087953;28;20039;-74
2024/02/17 08:22:33;;;;;;;28.63;18.27;;;;;;;9.21;47.23;95833.06;5087921;28;20113;-75
2024/02/17 08:25:00;;;;;;;30.65;19.05;;;;;;;9.64;46.39;95826.38;5088621;28;20038;-75
2024/02/17 08:27:25;;;;;;;24.27;16.77;;;;;;;10.10;45.25;95831.31;5087451;28;20066;-74
2024/02/17 08:29:51;;;;;;;28.73;18.15;;;;;;;10.62;44.23;95831.81;5088655;28;20051;-75
2024/02/17 08:32:16;;;;;;;26.52;18.45;;;;;;;11.15;42.54;95829.41;5087166;28;20036;-75
2024/02/17 08:34:42;;;;;;;26.98;17.75;;;;;;;11.61;41.32;95820.31;5087768;28;20035;-74
2024/02/17 08:37:07;;;;;;;26.02;17.98;;;;;;;12.32;39.87;95831.13;5087742;28;20020;-74
2024/02/17 08:39:33;;;;;;;27.55;18.67;;;;;;;12.94;38.66;95832.88;5087691;28;20087;-74
2024/02/17 08:41:58;;;;;;;23.65;18.08;;;;;;;13.69;37.56;95830.25;5087829;28;20032;-75
2024/02/17 08:44:23;;;;;;;30.95;18.25;;;;;;;14.49;35.96;95842.25;5087238;28;20020;-76
2024/02/17 08:46:49;;;;;;;23.02;17.27;;;;;;;15.38;34.35;95842.22;5088139;28;20040;-76
2024/02/17 08:49:14;;;;;;;25.83;16.65;;;;;;;16.41;32.70;95837.06;5087021;28;20167;-75
2024/02/17 08:51:40;;;;;;;22.42;15.38;;;;;;;17.44;31.14;95841.38;5087592;28;20073;-76
2024/02/17 08:54:05;;;;;;;22.70;14.75;;;;;;;18.53;28.93;95839.84;5086966;28;20102;-74
2024/02/17 08:56:30;;;;;;;17.65;13.27;;;;;;;19.43;27.86;95838.44;5087472;28;20017;-75
2024/02/17 08:58:56;;;;;;;15.88;13.32;;;;;;;20.19;26.10;95839.78;5087528;28;20020;-75
2024/02/17 09:01:22;;;;;;;17.20;13.13;;;;;;;20.98;24.92;95830.00;5087571;28;20589;-74
2024/02/17 09:03:47;;;;;;;20.38;13.23;;;;;;;21.73;24.30;95835.69;5088040;28;20136;-75
2024/02/17 09:06:13;;;;;;;16.25;13.63;;;;;;;22.39;23.18;95841.81;5086836;28;20115;-75
2024/02/17 09:08:38;;;;;;;18.17;13.77;;;;;;;22.87;22.65;95841.25;5087506;28;20024;-75
2024/02/17 09:11:04;;;;;;;15.43;12.80;;;;;;;23.41;21.89;95844.25;5086630;28;20032;-75
2024/02/17 09:13:29;;;;;;;15.57;12.50;;;;;;;23.76;21.41;95838.34;5087116;28;20104;-75
2024/02/17 09:15:55;;;;;;;16.00;13.43;;;;;;;24.55;20.44;95845.81;5087092;28;20028;-75
2024/02/17 09:18:22;;;;;;;15.65;13.45;;;;;;;25.01;19.99;95844.59;5086941;28;20024;-76
2024/02/17 09:20:49;;;;;;;19.83;12.68;;;;;;;25.32;19.62;95842.81;5087086;28;20020;-77
2024/02/17 09:23:14;;;;;;;18.27;13.20;;;;;;;25.98;18.98;95840.38;5086686;28;20028;-75
2024/02/17 09:25:40;;;;;;;20.48;13.52;;;;;;;26.54;18.38;95840.91;5087594;28;20410;-75
2024/02/17 09:28:06;;;;;;;17.35;14.13;;;;;;;27.04;17.52;95839.03;5087932;28;20081;-74
2024/02/17 09:30:34;;;;;;;18.00;12.57;;;;;;;27.27;17.57;95840.41;5089142;28;20024;-77
2024/02/17 09:33:00;;;;;;;18.63;11.98;;;;;;;27.61;17.28;95840.09;5086891;28;20502;-80
2024/02/17 09:35:25;;;;;;;19.42;11.57;;;;;;;28.00;16.67;95840.47;5086235;28;20039;-83
2024/02/17 09:37:50;;;;;;;14.27;11.68;;;;;;;28.45;16.48;95833.50;5067809;28;20031;-82
2024/02/17 09:40:17;;;;;;;17.25;11.95;;;;;;;28.90;16.31;95839.25;5068665;28;20056;-81
2024/02/17 09:42:51;;;;;;;13.57;10.48;;;;;;;29.36;15.43;95840.88;5086676;28;20031;-82
2024/02/17 09:45:19;;;;;;;11.73;9.02;;;;;;;29.51;15.33;95840.34;5049431;28;20032;-84
2024/02/17 09:47:45;;;;;;;13.43;9.77;;;;;;;29.93;14.94;95846.28;5051135;28;20035;-79
2024/02/17 09:50:11;;;;;;;13.63;9.35;;;;;;;30.24;14.93;95841.84;5067758;28;20115;-79
2024/02/17 09:52:37;;;;;;;12.60;10.18;;;;;;;30.58;14.31;95839.06;5068032;28;20035;-76
2024/02/17 09:55:04;;;;;;;13.07;9.60;;;;;;;31.09;14.45;95838.69;5085933;28;20024;-77
2024/02/17 09:57:29;;;;;;;15.73;10.27;;;;;;;31.37;14.13;95825.88;5086093;28;20027;-80
2024/02/17 09:59:55;;;;;;;15.18;9.40;;;;;;;31.59;13.48;95833.06;5086324;28;20411;-79
2024/02/17 10:02:21;;;;;;;14.27;10.20;;;;;;;31.56;13.72;95822.84;5067081;28;20040;-76
2024/02/17 10:04:54;;;;;;;17.17;12.73;;;;;;;31.90;13.41;95823.47;5086986;28;20024;-82
2024/02/17 10:07:19;;;;;;;14.48;11.43;;;;;;;32.24;13.00;95811.91;5050298;28;20050;-78
2024/02/17 10:09:47;;;;;;;17.25;12.02;;;;;;;33.02;13.00;95820.16;5052299;28;20730;-79
2024/02/17 10:12:13;;;;;;;13.65;11.55;;;;;;;33.14;12.75;95811.25;5092825;28;20028;-78
2024/02/17 10:14:39;;;;;;;15.20;11.68;;;;;;;33.22;12.50;95806.34;5091034;28;20024;-78
2024/02/17 10:17:08;;;;;;;18.73;10.93;;;;;;;33.59;12.25;95804.09;5087127;28;20442;-80
2024/02/17 10:19:34;;;;;;;14.70;11.43;;;;;;;33.98;11.83;95806.34;5069308;28;20031;-82
2024/02/17 10:21:59;;;;;;;15.65;11.95;;;;;;;34.30;11.56;95807.78;5051747;28;20032;-81
2024/02/17 10:24:25;;;;;;;12.55;10.38;;;;;;;34.56;11.38;95800.84;5066901;28;20519;-78
2024/02/17 10:26:54;;;;;;;11.00;8.85;;;;;;;34.69;11.18;95791.25;5086343;28;20068;-76
2024/02/17 10:29:20;;;;;;;12.38;8.52;;;;;;;34.68;11.76;95793.34;5085441;28;20032;-77
2024/02/17 10:31:48;;;;;;;9.30;6.63;;;;;;;35.13;11.25;95792.34;5085729;28;20477;-76
2024/02/17 10:34:15;;;;;;;12.05;7.63;;;;;;;35.42;11.91;95780.50;5067215;28;20024;-78
2024/02/17 10:36:40;;;;;;;10.00;8.23;;;;;;;35.53;11.77;95788.63;5085133;28;20020;-76
2024/02/17 10:39:06;;;;;;;9.75;7.50;;;;;;;35.53;11.95;95788.63;5086236;28;20453;-76
2024/02/17 10:41:34;;;;;;;11.77;8.95;;;;;;;35.55;11.00;95785.94;5066766;28;20115;-75
2024/02/17 10:44:00;;;;;;;11.68;9.60;;;;;;;35.77;11.28;95792.03;5086429;28;20059;-75
2024/02/17 10:46:27;;;;;;;12.82;9.27;;;;;;;36.15;11.49;95792.41;5084558;28;20414;-75
2024/02/17 10:49:11;;;;;;;12.50;9.45;;;;;;;36.58;11.63;95789.44;5085646;28;20032;-76
2024/02/17 10:52:05;;;;;;;13.52;9.73;;;;;;;37.46;10.62;95795.09;5084773;28;20127;-77
2024/02/17 10:54:53;;;;;;;14.90;9.75;;;;;;;37.81;9.92;95780.56;5081808;28;20032;-77
2024/02/17 10:57:21;;;;;;;14.57;10.10;;;;;;;37.73;9.74;95789.25;5086004;28;20086;-77
2024/02/17 10:59:53;;;;;;;11.52;8.35;;;;;;;37.54;10.16;95786.34;5072711;28;20032;-75
2024/02/17 11:02:23;;;;;;;11.65;7.40;;;;;;;37.34;10.40;95787.63;5092054;28;20104;-77
2024/02/17 11:04:48;;;;;;;8.55;7.60;;;;;;;37.60;10.17;95780.31;5074308;28;20057;-75
2024/02/17 11:07:15;;;;;;;9.43;7.55;;;;;;;37.98;10.04;95777.56;5073302;28;20137;-76
2024/02/17 11:09:46;;;;;;;9.98;7.55;;;;;;;38.62;9.13;95768.63;5092709;28;20020;-77
2024/02/17 11:12:50;;;;;;;8.00;7.15;;;;;;;38.64;9.34;95771.66;5091862;28;20043;-76
2024/02/17 11:15:16;;;;;;;11.15;7.90;;;;;;;38.42;9.55;95767.16;5029241;28;20037;-75
2024/02/17 11:17:44;;;;;;;10.82;7.18;;;;;;;38.90;9.14;95775.72;5029278;28;20499;-76
2024/02/17 11:20:14;;;;;;;7.28;6.38;;;;;;;38.94;9.52;95761.66;5028717;28;20519;-75
2024/02/17 11:22:48;;;;;;;10.73;7.55;;;;;;;39.20;9.14;95762.78;5029400;28;20045;-76
2024/02/17 11:25:38;;;;;;;11.98;7.03;;;;;;;39.38;8.99;95756.78;5028704;28;20029;-76